Time;durP1;ratioP1;P1;durP2;ratioP2;P2;SDS_P1;SDS_P2;PMS_P1;PMS_P2;Temp;Humidity;BMP_temperature;BMP_pressure;BME280_temperature;BME280_humidity;BME280_pressure;Samples;Min_cycle;Max_cycle;Signal;HPM_P1;HPM_P2
2023/03/18 00:00:48;;;;;;;5.53;2.42;;;;;;;6.93;91.91;96793.94;5075227;28;20067;-59
2023/03/18 00:03:16;;;;;;;5.22;2.45;;;;;;;6.76;92.81;96796.63;5078930;28;20146;-57
2023/03/18 00:05:43;;;;;;;4.57;2.38;;;;;;;6.72;93.63;96790.91;5070746;28;20630;-58
2023/03/18 00:08:10;;;;;;;4.80;2.33;;;;;;;6.63;93.16;96798.53;5075697;28;20047;-58
2023/03/18 00:10:38;;;;;;;4.97;2.50;;;;;;;6.56;93.61;96789.78;5072027;28;20040;-59
2023/03/18 00:13:05;;;;;;;7.43;2.72;;;;;;;6.39;94.70;96789.75;5075601;28;20093;-58
2023/03/18 00:15:31;;;;;;;5.13;2.67;;;;;;;6.34;94.82;96793.16;5073757;28;20136;-59
2023/03/18 00:17:58;;;;;;;6.53;2.97;;;;;;;6.27;95.40;96794.34;5073401;28;20429;-59
2023/03/18 00:20:37;;;;;;;5.05;2.60;;;;;;;6.23;94.79;96794.81;5073264;28;20610;-59
2023/03/18 00:23:07;;;;;;;6.35;2.80;;;;;;;6.23;95.19;96807.47;5077542;28;20040;-57
2023/03/18 00:25:35;;;;;;;6.45;2.83;;;;;;;6.31;94.10;96811.63;5075300;28;20037;-58
2023/03/18 00:28:03;;;;;;;5.63;2.58;;;;;;;6.23;94.86;96815.53;5072907;28;20139;-59
2023/03/18 00:30:30;;;;;;;5.80;2.72;;;;;;;6.21;94.83;96815.75;5073099;28;20042;-59
2023/03/18 00:32:57;;;;;;;7.40;3.00;;;;;;;6.26;95.05;96819.59;5075395;28;20052;-59
2023/03/18 00:35:29;;;;;;;7.55;2.90;;;;;;;6.48;93.88;96820.59;5071136;28;20495;-58
2023/03/18 00:37:57;;;;;;;6.70;2.80;;;;;;;6.51;93.07;96824.66;5074158;28;20068;-58
2023/03/18 00:40:41;;;;;;;6.43;2.50;;;;;;;6.50;92.77;96828.41;5074244;28;20032;-60
2023/03/18 00:43:09;;;;;;;6.70;2.38;;;;;;;6.47;92.83;96835.09;5074019;28;20047;-59
2023/03/18 00:45:39;;;;;;;6.45;2.30;;;;;;;6.57;91.56;96825.59;5072039;28;20032;-58
2023/03/18 00:48:07;;;;;;;6.22;2.40;;;;;;;6.70;90.95;96825.28;5070633;28;20040;-59
2023/03/18 00:50:35;;;;;;;4.30;2.40;;;;;;;6.55;91.72;96828.50;5073218;28;20040;-59
2023/03/18 00:53:02;;;;;;;5.40;2.65;;;;;;;6.36;93.13;96827.88;5073621;28;20036;-60
2023/03/18 00:55:28;;;;;;;6.38;2.55;;;;;;;6.33;92.96;96831.84;5073792;28;20130;-58
2023/03/18 00:57:56;;;;;;;4.65;2.35;;;;;;;6.22;94.01;96825.44;5070534;28;20099;-57
2023/03/18 01:00:24;;;;;;;6.32;2.58;;;;;;;6.21;94.09;96828.38;5073370;28;20050;-58
2023/03/18 01:02:52;;;;;;;6.93;2.70;;;;;;;6.26;94.19;96819.59;5075663;28;20611;-60
2023/03/18 01:05:18;;;;;;;5.32;2.53;;;;;;;6.28;93.33;96821.00;5074015;28;20044;-57
2023/03/18 01:07:46;;;;;;;6.38;2.75;;;;;;;6.21;94.40;96828.38;5093382;27;20036;-59
2023/03/18 01:10:14;;;;;;;4.95;2.45;;;;;;;6.17;95.75;96824.53;5076202;28;20035;-59
2023/03/18 01:12:42;;;;;;;4.68;2.05;;;;;;;6.24;94.61;96835.97;5073138;28;20044;-59
2023/03/18 01:15:12;;;;;;;4.40;2.15;;;;;;;6.41;91.88;96832.53;5069642;28;20037;-58
2023/03/18 01:17:39;;;;;;;4.72;2.55;;;;;;;6.47;91.85;96831.56;5066626;28;20040;-57
2023/03/18 01:20:06;;;;;;;4.57;2.38;;;;;;;6.52;92.37;96828.19;5067782;28;20048;-58
2023/03/18 01:22:33;;;;;;;4.30;2.10;;;;;;;6.59;91.31;96823.47;5072539;28;20047;-59
2023/03/18 01:25:00;;;;;;;5.35;2.35;;;;;;;6.73;89.24;96829.38;5070108;28;20081;-59
2023/03/18 01:27:33;;;;;;;6.40;2.33;;;;;;;6.67;90.24;96824.97;5075683;28;20556;-59
2023/03/18 01:30:02;;;;;;;5.72;2.22;;;;;;;6.60;91.00;96830.50;5069600;28;20055;-59
2023/03/18 01:32:28;;;;;;;4.60;2.17;;;;;;;6.54;91.28;96836.81;5072233;28;20040;-59
2023/03/18 01:34:55;;;;;;;5.38;2.38;;;;;;;6.49;92.55;96829.47;5072403;28;20052;-58
2023/03/18 01:37:23;;;;;;;5.28;2.33;;;;;;;6.51;92.35;96824.66;5075050;28;20028;-58
2023/03/18 01:39:59;;;;;;;4.13;2.13;;;;;;;6.62;92.12;96828.38;5074492;28;20065;-58
2023/03/18 01:42:26;;;;;;;5.55;2.60;;;;;;;6.58;90.85;96828.03;5069927;28;20076;-59
2023/03/18 01:45:16;;;;;;;5.97;2.45;;;;;;;6.61;91.24;96822.19;5064691;28;20052;-58
2023/03/18 01:47:45;;;;;;;4.93;2.10;;;;;;;6.53;91.26;96825.25;5069020;28;20040;-56
2023/03/18 01:50:18;;;;;;;5.70;1.63;;;;;;;6.54;91.55;96816.13;5070973;28;20079;-59
2023/03/18 01:52:46;;;;;;;4.00;1.77;;;;;;;6.63;91.75;96813.84;5071103;28;20040;-60
2023/03/18 01:55:18;;;;;;;5.47;1.60;;;;;;;6.72;90.95;96812.44;5076526;28;20127;-59
2023/03/18 01:57:47;;;;;;;3.88;1.58;;;;;;;6.80;89.83;96818.47;5060562;28;20044;-59
2023/03/18 02:00:15;;;;;;;4.25;1.90;;;;;;;6.84;88.79;96825.81;5071746;28;20045;-57
2023/03/18 02:02:47;;;;;;;4.43;1.65;;;;;;;6.64;90.01;96827.06;5069397;28;20325;-58
2023/03/18 02:05:18;;;;;;;5.97;1.73;;;;;;;6.36;91.87;96825.19;5075320;28;20040;-59
2023/03/18 02:07:45;;;;;;;4.30;1.60;;;;;;;6.22;91.69;96817.38;5076230;28;20146;-59
2023/03/18 02:10:17;;;;;;;3.50;1.48;;;;;;;6.32;91.64;96821.34;5075712;28;20040;-58
2023/03/18 02:12:49;;;;;;;3.90;1.35;;;;;;;6.38;90.24;96821.19;5072650;28;20047;-57
2023/03/18 02:15:26;;;;;;;6.25;1.52;;;;;;;6.11;92.88;96821.72;5069713;28;20055;-58
2023/03/18 02:18:15;;;;;;;3.80;1.75;;;;;;;6.44;90.57;96826.66;5074506;28;20045;-59
2023/03/18 02:20:47;;;;;;;4.70;1.60;;;;;;;6.45;88.81;96818.38;5079640;28;20487;-58
2023/03/18 02:23:50;;;;;;;2.70;1.20;;;;;;;6.29;91.37;96824.50;5075096;28;20043;-58
2023/03/18 02:26:34;;;;;;;10.07;1.70;;;;;;;6.36;89.67;96823.31;5078679;28;20044;-59
2023/03/18 02:29:05;;;;;;;2.97;1.60;;;;;;;6.22;90.22;96828.13;5070996;28;20135;-58
2023/03/18 02:31:43;;;;;;;4.45;1.65;;;;;;;6.05;92.04;96822.66;5077253;28;20102;-59
2023/03/18 02:34:11;;;;;;;2.22;1.02;;;;;;;6.37;88.91;96822.25;5078708;28;20040;-60
2023/03/18 02:36:38;;;;;;;3.03;1.42;;;;;;;6.49;86.92;96824.09;5077642;28;20136;-57
2023/03/18 02:39:12;;;;;;;3.35;1.45;;;;;;;6.21;89.11;96823.81;5075089;28;20036;-58
2023/03/18 02:41:40;;;;;;;3.20;1.20;;;;;;;6.23;89.68;96827.06;5066722;28;20040;-59
2023/03/18 02:44:07;;;;;;;2.35;1.27;;;;;;;6.23;88.70;96826.28;5072287;28;20040;-58
2023/03/18 02:46:46;;;;;;;4.45;1.58;;;;;;;6.27;87.45;96824.75;5075834;28;20698;-58
2023/03/18 02:49:13;;;;;;;2.20;1.00;;;;;;;5.98;90.04;96828.13;5076712;28;20518;-58
2023/03/18 02:51:40;;;;;;;3.33;1.30;;;;;;;5.90;91.33;96830.38;5069866;28;20056;-57
2023/03/18 02:54:11;;;;;;;5.63;1.77;;;;;;;5.91;90.13;96827.47;5070576;28;20036;-56
2023/03/18 02:56:40;;;;;;;5.07;1.60;;;;;;;5.91;90.19;96823.94;5076950;28;20050;-59
2023/03/18 02:59:09;;;;;;;3.75;1.50;;;;;;;5.82;90.65;96829.69;5073543;28;20637;-58
2023/03/18 03:01:37;;;;;;;2.60;1.15;;;;;;;5.79;90.57;96832.81;5075058;28;20035;-58
2023/03/18 03:04:05;;;;;;;3.88;1.20;;;;;;;5.55;92.47;96832.84;5072647;28;20048;-58
2023/03/18 03:06:33;;;;;;;6.57;1.67;;;;;;;5.57;92.09;96835.31;5077359;28;20070;-60
2023/03/18 03:08:59;;;;;;;4.53;1.60;;;;;;;5.56;91.80;96833.63;5072617;28;20040;-58
2023/03/18 03:11:27;;;;;;;1.95;1.10;;;;;;;5.53;92.08;96840.28;5077844;28;20118;-60
2023/03/18 03:13:59;;;;;;;3.90;1.70;;;;;;;5.58;91.34;96844.97;5069691;28;20535;-59
2023/03/18 03:16:28;;;;;;;4.40;1.70;;;;;;;5.54;92.29;96841.13;5074855;28;20188;-58
2023/03/18 03:18:56;;;;;;;4.75;1.77;;;;;;;5.44;92.22;96839.84;5070689;28;20531;-58
2023/03/18 03:21:22;;;;;;;4.45;1.40;;;;;;;5.36;92.65;96839.34;5079472;28;20052;-60
2023/03/18 03:23:49;;;;;;;2.60;1.50;;;;;;;5.30;92.89;96841.09;5073812;28;20105;-59
2023/03/18 03:26:16;;;;;;;3.08;1.40;;;;;;;5.32;92.36;96844.38;5072897;28;20455;-59
2023/03/18 03:28:43;;;;;;;3.90;1.92;;;;;;;5.47;91.22;96846.63;5074676;28;20032;-58
2023/03/18 03:31:09;;;;;;;3.10;1.35;;;;;;;5.46;90.70;96848.47;5071483;28;20062;-59
2023/03/18 03:33:40;;;;;;;3.05;1.30;;;;;;;5.46;90.63;96847.66;5074432;28;20704;-59
2023/03/18 03:36:09;;;;;;;5.82;1.30;;;;;;;5.51;89.86;96845.09;5075910;28;20526;-58
2023/03/18 03:38:36;;;;;;;2.92;1.58;;;;;;;5.56;89.25;96847.06;5077241;28;20124;-60
2023/03/18 03:41:04;;;;;;;4.00;1.30;;;;;;;5.53;89.24;96847.56;5071657;28;20067;-59
2023/03/18 03:43:32;;;;;;;4.22;1.40;;;;;;;5.49;89.46;96844.50;5077429;28;20049;-58
2023/03/18 03:45:59;;;;;;;3.28;1.50;;;;;;;5.53;88.59;96840.28;5075922;28;20036;-58
2023/03/18 03:48:26;;;;;;;3.55;1.50;;;;;;;5.43;89.12;96840.91;5052320;28;20662;-58
2023/03/18 03:50:53;;;;;;;3.13;1.40;;;;;;;5.34;89.87;96842.25;5071837;28;20562;-58
2023/03/18 03:53:20;;;;;;;2.88;1.40;;;;;;;5.25;90.47;96840.97;5075482;28;20043;-59
2023/03/18 03:55:46;;;;;;;3.38;1.30;;;;;;;5.39;88.82;96844.25;5067858;28;20529;-58
2023/03/18 03:58:13;;;;;;;5.28;1.70;;;;;;;5.31;89.78;96846.22;5076608;28;20108;-59
2023/03/18 04:00:39;;;;;;;2.30;1.25;;;;;;;5.33;89.31;96846.84;5073701;28;20677;-59
2023/03/18 04:03:06;;;;;;;2.65;1.30;;;;;;;5.42;88.50;96841.13;5074549;28;20032;-57
2023/03/18 04:05:32;;;;;;;5.20;1.92;;;;;;;5.29;89.61;96851.03;5074139;28;20063;-58
2023/03/18 04:08:00;;;;;;;3.88;1.50;;;;;;;5.25;89.58;96844.47;5069792;28;20077;-58
2023/03/18 04:10:44;;;;;;;3.75;1.55;;;;;;;5.34;88.94;96847.63;5073538;28;20040;-59
2023/03/18 04:13:10;;;;;;;3.65;1.45;;;;;;;5.44;87.94;96860.50;5075821;28;20043;-58
2023/03/18 04:15:39;;;;;;;4.25;1.80;;;;;;;5.40;88.64;96862.84;5061539;28;20041;-58
2023/03/18 04:18:10;;;;;;;3.22;1.58;;;;;;;5.34;89.18;96850.31;5071406;28;20063;-57
2023/03/18 04:20:37;;;;;;;6.10;2.10;;;;;;;5.34;88.84;96858.38;5075965;28;20051;-59
2023/03/18 04:23:13;;;;;;;6.47;2.53;;;;;;;5.30;88.88;96843.78;5071357;28;20040;-59
2023/03/18 04:25:39;;;;;;;4.03;1.77;;;;;;;5.27;88.88;96846.94;5073815;28;20131;-59
2023/03/18 04:28:06;;;;;;;6.75;1.95;;;;;;;5.24;89.24;96852.75;5068856;28;20035;-59
2023/03/18 04:30:35;;;;;;;8.77;2.40;;;;;;;5.24;89.22;96845.53;5070018;28;20077;-58
2023/03/18 04:33:06;;;;;;;5.68;1.70;;;;;;;5.36;88.15;96847.41;5072215;28;20051;-59
2023/03/18 04:35:33;;;;;;;5.40;1.70;;;;;;;5.37;87.86;96846.34;5075610;28;20040;-58
2023/03/18 04:38:00;;;;;;;2.83;1.50;;;;;;;5.35;88.27;96849.28;5077404;28;20037;-60
2023/03/18 04:40:27;;;;;;;2.45;1.23;;;;;;;5.36;88.45;96852.78;5070510;28;20423;-59
2023/03/18 04:42:54;;;;;;;4.40;1.60;;;;;;;5.40;89.43;96856.63;5068954;28;20048;-60
2023/03/18 04:45:23;;;;;;;4.32;1.30;;;;;;;5.34;88.99;96859.19;5071434;28;20573;-59
2023/03/18 04:47:53;;;;;;;4.07;1.90;;;;;;;5.29;89.24;96858.25;5074920;28;20094;-60
2023/03/18 04:50:20;;;;;;;3.92;1.35;;;;;;;5.24;89.93;96852.75;5069846;28;20052;-60
2023/03/18 04:52:47;;;;;;;3.65;1.17;;;;;;;5.18;90.40;96857.19;5071543;28;20172;-58
2023/03/18 04:55:16;;;;;;;3.70;1.45;;;;;;;4.98;91.02;96861.00;5069919;28;20040;-58
2023/03/18 04:57:43;;;;;;;3.13;1.40;;;;;;;4.70;92.20;96859.72;5069026;28;20040;-58
2023/03/18 05:00:20;;;;;;;2.75;1.42;;;;;;;4.57;92.58;96860.69;5075389;28;20128;-59
2023/03/18 05:02:51;;;;;;;3.67;1.48;;;;;;;4.46;93.01;96864.94;5070413;28;20040;-59
2023/03/18 05:05:20;;;;;;;3.50;1.20;;;;;;;4.40;92.82;96860.50;5074689;28;20525;-59
2023/03/18 05:07:49;;;;;;;4.22;1.38;;;;;;;4.38;93.75;96862.56;5066638;28;20045;-58
2023/03/18 05:10:18;;;;;;;3.55;1.75;;;;;;;4.37;94.20;96858.25;5074847;28;20776;-59
2023/03/18 05:12:45;;;;;;;3.05;1.25;;;;;;;4.39;94.34;96856.97;5069963;28;20071;-59
2023/03/18 05:15:14;;;;;;;6.55;1.52;;;;;;;4.57;93.28;96862.56;5075338;28;20043;-60
2023/03/18 05:17:47;;;;;;;3.30;1.40;;;;;;;4.57;93.43;96862.56;5070916;28;20481;-59
2023/03/18 05:20:13;;;;;;;3.17;1.30;;;;;;;4.54;93.29;96861.97;5073996;28;20531;-59
2023/03/18 05:22:42;;;;;;;5.45;1.77;;;;;;;4.55;92.54;96873.50;5070916;28;20630;-59
2023/03/18 05:25:15;;;;;;;4.55;1.30;;;;;;;4.49;93.09;96864.50;5075206;28;20490;-59
2023/03/18 05:27:42;;;;;;;5.30;1.40;;;;;;;4.24;93.16;96875.31;5072288;28;20074;-57
2023/03/18 05:30:15;;;;;;;5.65;1.38;;;;;;;4.12;93.99;96875.22;5084770;28;20032;-58
2023/03/18 05:32:47;;;;;;;3.05;1.40;;;;;;;4.07;94.54;96872.41;5077247;28;20078;-59
2023/03/18 05:35:15;;;;;;;2.45;1.27;;;;;;;3.78;95.51;96883.59;5070569;28;20036;-58
2023/03/18 05:37:47;;;;;;;8.25;1.85;;;;;;;3.68;96.19;96869.91;5072573;28;20040;-60
2023/03/18 05:40:15;;;;;;;4.70;1.95;;;;;;;3.75;96.04;96876.00;5063600;28;20043;-58
2023/03/18 05:42:52;;;;;;;4.22;1.85;;;;;;;3.93;95.22;96879.75;5086606;28;20056;-58
2023/03/18 05:45:31;;;;;;;;;;;;;;;4.06;94.44;96882.31;5073082;28;20127;-58
2023/03/18 05:47:58;;;;;;;;;;;;;;;4.03;94.67;96883.56;5081021;28;19920;-58
2023/03/18 05:50:30;;;;;;;;;;;;;;;4.08;94.33;96884.75;5083680;28;19924;-58
2023/03/18 05:52:58;;;;;;;;;;;;;;;4.16;93.50;96889.81;5066494;28;19920;-58
2023/03/18 05:55:27;;;;;;;;;;;;;;;4.21;93.35;96881.94;5085543;28;19928;-60
2023/03/18 05:57:54;;;;;;;4.73;1.70;;;;;;;4.32;92.68;96884.91;5083224;28;19930;-58
2023/03/18 06:00:23;;;;;;;3.58;1.40;;;;;;;4.39;92.04;96883.00;5057089;28;20892;-59
2023/03/18 06:02:53;;;;;;;4.60;1.95;;;;;;;4.41;91.96;96883.56;5077039;28;20029;-60
2023/03/18 06:05:21;;;;;;;4.55;1.52;;;;;;;4.36;92.03;96878.06;5075760;28;20048;-56
2023/03/18 06:07:48;;;;;;;2.58;1.33;;;;;;;4.33;92.00;96873.97;5075847;28;20086;-58
2023/03/18 06:10:15;;;;;;;3.42;1.33;;;;;;;4.39;91.94;96878.44;5081815;28;20110;-58
2023/03/18 06:12:44;;;;;;;2.80;1.20;;;;;;;4.45;91.37;96881.28;5083078;28;20504;-58
2023/03/18 06:15:12;;;;;;;3.35;1.55;;;;;;;4.54;91.07;96885.28;5083156;28;20040;-59
2023/03/18 06:17:39;;;;;;;5.13;1.75;;;;;;;4.78;89.81;96886.22;5072467;28;20085;-58
2023/03/18 06:20:10;;;;;;;8.32;1.80;;;;;;;4.88;89.63;96885.69;5080832;28;20434;-58
2023/03/18 06:22:37;;;;;;;;;;;;;;;4.90;89.25;96885.47;5078575;28;20042;-58
2023/03/18 06:25:07;;;;;;;;;;;;;;;4.94;89.18;96890.13;5081907;28;19923;-59
2023/03/18 06:27:36;;;;;;;;;;;;;;;5.08;88.15;96889.94;5079132;28;19920;-58
2023/03/18 06:30:04;;;;;;;;;;;;;;;5.23;87.02;96886.03;5076785;28;19982;-57
2023/03/18 06:32:33;;;;;;;;;;;;;;;5.49;85.45;96890.16;5079083;28;19928;-58
2023/03/18 06:35:00;;;;;;;;;;;;;;;5.77;83.50;96880.63;5079016;28;19920;-59
2023/03/18 06:37:28;;;;;;;;;;;;;;;6.07;81.86;96895.84;5076770;28;19928;-58
2023/03/18 06:39:55;;;;;;;5.25;1.80;;;;;;;6.31;80.28;96895.81;5081610;28;19928;-57
2023/03/18 06:42:21;;;;;;;3.05;1.50;;;;;;;6.54;78.57;96894.13;5072866;28;20052;-58
2023/03/18 06:44:54;;;;;;;6.28;1.90;;;;;;;6.63;78.87;96895.38;5074260;28;20043;-50
2023/03/18 06:47:28;;;;;;;4.43;1.55;;;;;;;6.62;79.13;96896.44;5077297;28;20072;-58
2023/03/18 06:49:56;;;;;;;4.65;2.00;;;;;;;6.64;79.03;96897.00;5081736;28;20039;-57
2023/03/18 06:52:31;;;;;;;5.50;1.63;;;;;;;6.81;78.40;96893.56;5073740;28;20661;-57
2023/03/18 06:55:08;;;;;;;4.70;2.00;;;;;;;6.96;77.36;96895.75;5081177;28;20039;-57
2023/03/18 06:57:37;;;;;;;7.95;1.90;;;;;;;7.06;76.60;96895.13;5081686;28;20050;-56
2023/03/18 07:00:05;;;;;;;5.70;2.65;;;;;;;7.15;76.37;96904.44;5083690;28;20040;-57
2023/03/18 07:02:32;;;;;;;6.93;1.88;;;;;;;7.26;76.57;96896.56;5085252;28;20044;-57
2023/03/18 07:04:59;;;;;;;5.38;1.75;;;;;;;7.38;75.83;96899.97;5078085;28;20443;-58
2023/03/18 07:07:26;;;;;;;6.38;2.20;;;;;;;7.49;75.81;96903.66;5077662;28;20048;-58
2023/03/18 07:09:53;;;;;;;2.67;1.48;;;;;;;7.72;73.78;96906.47;5076976;28;20515;-58
2023/03/18 07:12:20;;;;;;;6.80;1.70;;;;;;;7.87;73.25;96904.03;5078882;28;20044;-57
2023/03/18 07:14:47;;;;;;;3.40;1.50;;;;;;;8.00;73.04;96905.53;5067916;28;20177;-57
2023/03/18 07:17:14;;;;;;;5.53;1.48;;;;;;;8.19;70.93;96903.41;5068864;28;20040;-58
2023/03/18 07:19:40;;;;;;;4.03;1.27;;;;;;;8.32;70.24;96902.25;5081223;28;20040;-59
2023/03/18 07:22:07;;;;;;;3.28;1.27;;;;;;;8.48;70.54;96907.03;5070409;28;20734;-59
2023/03/18 07:24:34;;;;;;;4.35;1.30;;;;;;;8.66;69.22;96905.94;5069787;28;20083;-57
2023/03/18 07:27:02;;;;;;;3.83;1.42;;;;;;;8.64;68.44;96906.19;5073431;28;20053;-59
2023/03/18 07:29:32;;;;;;;6.28;1.30;;;;;;;8.83;67.47;96906.69;5071568;28;20031;-58
2023/03/18 07:31:58;;;;;;;5.57;1.40;;;;;;;8.96;67.87;96901.97;5080831;28;20070;-55
2023/03/18 07:34:26;;;;;;;4.45;1.48;;;;;;;9.13;65.41;96909.97;5074966;28;20048;-58
2023/03/18 07:36:52;;;;;;;3.33;1.25;;;;;;;9.29;65.67;96910.94;5081841;28;20139;-58
2023/03/18 07:39:19;;;;;;;3.60;1.50;;;;;;;9.37;64.55;96912.38;5072742;28;20487;-58
2023/03/18 07:41:48;;;;;;;4.30;1.20;;;;;;;9.47;65.08;96908.97;5073663;28;20043;-58
2023/03/18 07:44:20;;;;;;;2.95;1.15;;;;;;;9.55;62.99;96913.09;5066643;28;20043;-59
2023/03/18 07:46:46;;;;;;;3.53;1.40;;;;;;;9.75;62.93;96915.97;5066976;28;20040;-57
2023/03/18 07:49:13;;;;;;;3.47;1.15;;;;;;;9.87;61.50;96912.25;5072049;28;20117;-58
2023/03/18 07:51:40;;;;;;;2.58;1.08;;;;;;;10.08;61.17;96912.41;5069010;28;20539;-57
2023/03/18 07:54:06;;;;;;;2.63;1.00;;;;;;;10.24;60.33;96916.84;5066923;28;20044;-57
2023/03/18 07:56:33;;;;;;;2.03;0.80;;;;;;;10.33;60.18;96913.66;5078262;28;20040;-59
2023/03/18 07:59:00;;;;;;;3.42;1.27;;;;;;;10.38;59.15;96919.91;5068419;28;20087;-59
2023/03/18 08:01:26;;;;;;;3.47;1.00;;;;;;;10.49;58.80;96920.81;5065345;28;20435;-56
2023/03/18 08:03:53;;;;;;;3.75;1.00;;;;;;;10.64;58.78;96919.25;5069457;28;20040;-57
2023/03/18 08:06:20;;;;;;;5.78;1.13;;;;;;;10.72;58.17;96923.38;5065537;28;20055;-59
2023/03/18 08:08:48;;;;;;;2.60;0.82;;;;;;;10.92;57.50;96926.13;5072930;28;20515;-59
2023/03/18 08:11:15;;;;;;;3.25;0.98;;;;;;;11.19;56.54;96922.44;5077137;28;20075;-58
2023/03/18 08:13:41;;;;;;;7.00;1.27;;;;;;;11.26;57.35;96924.06;5080253;28;20040;-58
2023/03/18 08:16:08;;;;;;;3.63;1.20;;;;;;;11.32;57.56;96926.53;5076845;28;20044;-57
2023/03/18 08:18:35;;;;;;;1.75;0.85;;;;;;;11.44;55.46;96922.75;5076834;28;20074;-56
2023/03/18 08:21:02;;;;;;;4.47;1.15;;;;;;;11.47;56.20;96930.38;5075868;28;20181;-55
2023/03/18 08:23:28;;;;;;;2.45;1.02;;;;;;;11.54;55.31;96920.06;5083688;28;20044;-58
2023/03/18 08:25:55;;;;;;;3.53;1.20;;;;;;;11.65;55.38;96929.00;5074795;28;20710;-58
2023/03/18 08:28:22;;;;;;;3.78;0.80;;;;;;;11.74;54.17;96929.28;5070727;28;20068;-58
2023/03/18 08:30:53;;;;;;;3.25;1.20;;;;;;;11.83;54.65;96927.66;5077429;28;20043;-58
2023/03/18 08:33:21;;;;;;;2.70;1.40;;;;;;;11.89;54.64;96933.91;5074646;28;20657;-59
2023/03/18 08:35:48;;;;;;;2.70;1.38;;;;;;;12.04;53.97;96926.84;5069407;28;20036;-58
2023/03/18 08:38:15;;;;;;;2.42;1.27;;;;;;;12.12;53.01;96917.38;5072258;28;20063;-58
2023/03/18 08:40:41;;;;;;;3.65;1.10;;;;;;;12.26;53.29;96918.44;5077382;28;20050;-58
2023/03/18 08:43:08;;;;;;;2.78;0.95;;;;;;;12.45;52.12;96926.00;5075969;28;20459;-58
2023/03/18 08:45:35;;;;;;;3.28;1.13;;;;;;;12.47;52.15;96923.84;5070590;28;20507;-59
2023/03/18 08:48:02;;;;;;;3.13;0.90;;;;;;;12.56;52.80;96919.47;5077149;28;20040;-59
2023/03/18 08:50:28;;;;;;;1.98;0.68;;;;;;;12.56;51.08;96919.47;5066501;28;20044;-58
2023/03/18 08:52:56;;;;;;;6.25;1.20;;;;;;;12.63;50.95;96926.53;5077223;28;20052;-59
2023/03/18 08:55:29;;;;;;;2.28;1.00;;;;;;;12.63;50.82;96916.44;5071466;28;20093;-57
2023/03/18 08:57:57;;;;;;;3.78;0.88;;;;;;;12.67;51.01;96924.84;5072840;28;20115;-58
2023/03/18 09:00:24;;;;;;;1.23;0.60;;;;;;;12.64;51.40;96920.78;5073029;28;20113;-57
2023/03/18 09:02:52;;;;;;;3.58;1.20;;;;;;;12.64;50.18;96922.72;5069696;28;20559;-60
2023/03/18 09:05:19;;;;;;;2.63;1.00;;;;;;;12.63;50.33;96924.59;5070867;28;20569;-59
2023/03/18 09:07:46;;;;;;;2.72;1.20;;;;;;;12.74;49.87;96928.09;5072444;28;20653;-59
2023/03/18 09:10:14;;;;;;;2.47;0.90;;;;;;;12.73;49.77;96921.88;5068116;28;20038;-56
2023/03/18 09:12:41;;;;;;;3.03;1.00;;;;;;;12.71;49.27;96923.22;5069253;28;20044;-59
2023/03/18 09:15:10;;;;;;;2.38;0.90;;;;;;;12.77;49.15;96922.13;5073430;28;20048;-60
2023/03/18 09:17:40;;;;;;;2.25;0.70;;;;;;;12.91;49.71;96916.09;5071607;28;20048;-58
2023/03/18 09:20:27;;;;;;;2.50;0.90;;;;;;;13.03;50.33;96913.03;5074027;28;20119;-59
2023/03/18 09:22:53;;;;;;;4.28;1.00;;;;;;;13.11;49.86;96915.16;5064628;28;20055;-59
2023/03/18 09:25:20;;;;;;;4.60;1.02;;;;;;;13.12;49.63;96909.44;5067450;28;20039;-59
2023/03/18 09:27:47;;;;;;;2.35;0.70;;;;;;;13.21;48.98;96911.59;5061864;28;20043;-58
2023/03/18 09:30:14;;;;;;;2.97;1.10;;;;;;;13.23;49.34;96909.41;5063216;28;20048;-59
2023/03/18 09:32:40;;;;;;;2.97;0.70;;;;;;;13.29;47.35;96907.44;5069913;28;20078;-58
2023/03/18 09:35:08;;;;;;;2.20;0.85;;;;;;;13.32;47.34;96902.28;5067081;28;20036;-58
2023/03/18 09:37:39;;;;;;;2.88;0.82;;;;;;;13.36;48.11;96900.63;5064994;28;20581;-60
2023/03/18 09:40:06;;;;;;;2.90;0.93;;;;;;;13.43;48.12;96897.59;5079488;28;20040;-59
2023/03/18 09:42:55;;;;;;;4.90;1.10;;;;;;;13.47;47.92;96898.66;5063657;28;20040;-58
2023/03/18 09:45:53;;;;;;;2.60;0.88;;;;;;;13.69;48.03;96897.44;5068222;28;20526;-59
2023/03/18 09:48:33;;;;;;;3.42;0.98;;;;;;;13.89;47.22;96899.16;5069223;28;20045;-59
2023/03/18 09:51:07;;;;;;;3.17;1.02;;;;;;;13.96;47.26;96895.31;5063778;28;20071;-59
2023/03/18 09:53:47;;;;;;;2.65;0.80;;;;;;;14.00;47.38;96893.63;5078078;28;20045;-59
2023/03/18 09:56:22;;;;;;;3.83;1.27;;;;;;;14.02;50.02;96896.88;5074210;28;20121;-58
2023/03/18 09:58:59;;;;;;;4.90;1.30;;;;;;;14.09;50.69;96889.22;5076012;28;20063;-58
2023/03/18 10:01:27;;;;;;;4.70;1.33;;;;;;;14.16;50.57;96883.44;5075624;28;20041;-58
2023/03/18 10:04:10;;;;;;;3.05;1.20;;;;;;;14.17;49.38;96876.88;5068431;28;20047;-56
2023/03/18 10:06:41;;;;;;;3.70;1.30;;;;;;;14.21;50.89;96883.38;5077093;28;20040;-60
2023/03/18 10:09:34;;;;;;;;;;;;;;;14.26;52.62;96879.78;5075522;28;20044;-61
2023/03/18 10:12:17;;;;;;;3.00;1.10;;;;;;;14.22;49.39;96884.97;5040246;28;19924;-62
2023/03/18 10:14:55;;;;;;;4.43;1.15;;;;;;;14.34;50.40;96883.78;5068873;28;20467;-61
2023/03/18 10:17:36;;;;;;;4.05;1.55;;;;;;;14.37;49.47;96885.94;5077453;28;20051;-60
2023/03/18 10:20:25;;;;;;;3.20;1.15;;;;;;;14.45;51.58;96885.31;5072557;28;20052;-61
2023/03/18 10:22:59;;;;;;;2.97;1.00;;;;;;;14.63;49.69;96889.19;5075901;28;20673;-57
2023/03/18 10:25:48;;;;;;;5.70;1.40;;;;;;;14.70;48.24;96892.38;5064093;28;20044;-58
2023/03/18 10:28:40;;;;;;;6.75;2.97;;;;;;;14.82;49.34;96878.34;5072716;28;20097;-59
2023/03/18 10:31:28;;;;;;;3.20;1.40;;;;;;;14.89;49.55;96875.25;5075644;28;20044;-60
2023/03/18 10:34:00;;;;;;;2.45;0.80;;;;;;;15.15;47.67;96894.00;5066959;28;20040;-60
2023/03/18 10:36:32;;;;;;;;;;;;;;;15.33;44.53;96895.13;5075353;28;20040;-60
2023/03/18 10:39:02;;;;;;;3.05;1.00;;;;;;;15.43;44.23;96898.81;5074289;28;19925;-60
2023/03/18 10:41:37;;;;;;;3.40;0.90;;;;;;;15.54;43.28;96883.91;5075449;28;20051;-63
2023/03/18 10:44:22;;;;;;;2.22;0.65;;;;;;;15.19;42.54;96880.63;5080646;28;20052;-61
2023/03/18 10:47:02;;;;;;;2.17;0.70;;;;;;;15.34;45.00;96883.09;5075477;28;20043;-63
2023/03/18 10:49:37;;;;;;;2.92;0.80;;;;;;;15.27;43.65;96879.13;5079862;28;20051;-61
2023/03/18 10:52:25;;;;;;;3.40;0.73;;;;;;;15.26;43.46;96874.78;5070619;28;20072;-61
2023/03/18 10:54:52;;;;;;;3.15;0.77;;;;;;;15.29;43.77;96876.94;5074706;28;20816;-57
2023/03/18 10:57:20;;;;;;;3.78;0.93;;;;;;;15.40;48.05;96878.38;5080833;28;20048;-61
2023/03/18 10:59:50;;;;;;;3.45;0.90;;;;;;;15.69;42.34;96876.59;5081460;28;20132;-63
2023/03/18 11:02:30;;;;;;;2.30;0.82;;;;;;;15.84;41.43;96873.63;5080603;28;20044;-62
2023/03/18 11:05:36;;;;;;;5.18;1.23;;;;;;;15.58;40.85;96871.31;5077977;28;20028;-61
2023/03/18 11:08:07;;;;;;;3.28;0.70;;;;;;;15.78;42.34;96874.00;5022204;28;20049;-62
2023/03/18 11:10:39;;;;;;;3.60;0.80;;;;;;;15.84;41.44;96870.06;5026464;28;20041;-58
2023/03/18 11:13:05;;;;;;;4.82;0.85;;;;;;;15.79;40.81;96870.97;5044660;28;20072;-59
2023/03/18 11:15:38;;;;;;;1.95;1.02;;;;;;;15.63;39.35;96856.78;5076658;28;20032;-61
2023/03/18 11:18:10;;;;;;;3.03;0.80;;;;;;;15.45;40.35;96850.22;5072806;28;20883;-63
2023/03/18 11:20:43;;;;;;;3.38;0.85;;;;;;;15.61;43.34;96853.53;5067544;28;20535;-60
2023/03/18 11:23:19;;;;;;;3.00;0.80;;;;;;;15.72;42.25;96852.25;5070548;28;20050;-62
2023/03/18 11:25:47;;;;;;;2.67;0.70;;;;;;;15.90;40.93;96855.22;5066530;28;20052;-61
2023/03/18 11:28:25;;;;;;;2.38;0.63;;;;;;;15.89;39.53;96853.63;5071358;28;20071;-62
2023/03/18 11:30:55;;;;;;;3.05;0.77;;;;;;;15.99;41.30;96855.38;5074844;28;20606;-61
2023/03/18 11:33:24;;;;;;;1.38;0.80;;;;;;;15.86;40.34;96840.56;5073747;28;20048;-60
2023/03/18 11:36:18;;;;;;;4.13;1.05;;;;;;;15.84;40.66;96843.59;5075821;28;20911;-62
2023/03/18 11:38:56;;;;;;;3.88;1.00;;;;;;;15.84;41.27;96846.31;5062989;28;20865;-60
2023/03/18 11:41:24;;;;;;;3.17;0.88;;;;;;;15.93;41.42;96842.91;5074345;28;20120;-59
2023/03/18 11:43:59;;;;;;;2.25;0.80;;;;;;;16.07;40.86;96842.97;5074378;28;20070;-60
2023/03/18 11:46:31;;;;;;;4.50;1.17;;;;;;;16.08;39.14;96837.22;5066808;28;20571;-57
2023/03/18 11:48:58;;;;;;;3.55;0.80;;;;;;;16.22;40.82;96841.88;5065863;28;20051;-58
2023/03/18 11:51:44;;;;;;;2.28;0.98;;;;;;;16.07;39.35;96838.28;5065705;28;20048;-58
2023/03/18 11:54:12;;;;;;;3.35;0.73;;;;;;;16.21;41.59;96838.31;5070445;28;20205;-57
2023/03/18 11:56:54;;;;;;;1.42;0.70;;;;;;;16.17;39.58;96828.28;5067081;28;20044;-50